Time;durP1;ratioP1;P1;durP2;ratioP2;P2;SDS_P1;SDS_P2;PMS_P1;PMS_P2;Temp;Humidity;BMP_temperature;BMP_pressure;BME280_temperature;BME280_humidity;BME280_pressure;Samples;Min_cycle;Max_cycle;Signal;HPM_P1;HPM_P2
2023/12/03 00:01:06;;;;;;;33.70;17.52;;;0.40;99.90;;;;;;5019957;28;20041;-58
2023/12/03 00:03:33;;;;;;;36.67;17.10;;;0.30;99.90;;;;;;5018303;28;20038;-59
2023/12/03 00:05:59;;;;;;;35.88;16.95;;;0.40;99.90;;;;;;5027412;28;20044;-60
2023/12/03 00:08:24;;;;;;;36.50;16.02;;;0.40;99.90;;;;;;5031994;28;20116;-60
2023/12/03 00:10:51;;;;;;;40.75;16.80;;;0.40;99.90;;;;;;5031804;28;20454;-60
2023/12/03 00:13:17;;;;;;;37.20;17.45;;;0.40;99.90;;;;;;5025058;28;20094;-58
2023/12/03 00:15:42;;;;;;;30.55;15.57;;;0.40;99.90;;;;;;5028467;28;20042;-61
2023/12/03 00:18:08;;;;;;;33.28;15.85;;;0.40;99.90;;;;;;5031228;28;20407;-60
2023/12/03 00:20:33;;;;;;;36.45;16.75;;;0.40;99.90;;;;;;5029867;28;20041;-64
2023/12/03 00:23:00;;;;;;;35.72;17.23;;;0.40;99.90;;;;;;5021284;28;20136;-60
2023/12/03 00:25:26;;;;;;;38.85;16.65;;;0.30;99.90;;;;;;5026065;28;20121;-63
2023/12/03 00:27:52;;;;;;;34.42;17.20;;;0.30;99.90;;;;;;5030663;28;20080;-60
2023/12/03 00:30:17;;;;;;;36.35;17.10;;;0.30;99.90;;;;;;5001165;28;20126;-58
2023/12/03 00:32:43;;;;;;;35.42;16.60;;;0.30;99.90;;;;;;5027280;28;20128;-57
2023/12/03 00:35:09;;;;;;;32.58;16.52;;;0.30;99.90;;;;;;5030547;28;20043;-59
2023/12/03 00:37:34;;;;;;;32.03;15.98;;;0.30;99.90;;;;;;5031179;28;20498;-61
2023/12/03 00:40:00;;;;;;;32.33;16.65;;;0.30;99.90;;;;;;5016828;28;20078;-64
2023/12/03 00:42:25;;;;;;;34.42;16.65;;;0.30;99.90;;;;;;5029357;28;20072;-58
2023/12/03 00:44:51;;;;;;;33.97;16.92;;;0.30;99.90;;;;;;5028331;22;20041;-57
2023/12/03 00:47:17;;;;;;;31.65;15.63;;;0.30;99.90;;;;;;5011523;28;20076;-65
2023/12/03 00:49:42;;;;;;;32.33;16.30;;;0.30;99.90;;;;;;5017471;28;20053;-63
2023/12/03 00:52:08;;;;;;;36.75;17.30;;;0.30;99.90;;;;;;5031595;28;20512;-61
2023/12/03 00:54:33;;;;;;;33.90;16.50;;;0.30;99.90;;;;;;5011458;28;20037;-59
2023/12/03 00:56:59;;;;;;;37.95;16.85;;;0.30;99.90;;;;;;5025722;28;20040;-58
2023/12/03 00:59:25;;;;;;;35.47;17.48;;;0.30;99.90;;;;;;5013808;28;20427;-61
2023/12/03 01:01:50;;;;;;;36.60;18.08;;;0.20;99.90;;;;;;5018631;28;20034;-57
2023/12/03 01:04:16;;;;;;;38.67;19.35;;;0.30;99.90;;;;;;5020690;28;20112;-59
2023/12/03 01:06:41;;;;;;;38.03;17.48;;;0.30;99.90;;;;;;5001525;28;20048;-59
2023/12/03 01:09:08;;;;;;;36.72;18.45;;;0.40;99.90;;;;;;5029984;28;20112;-60
2023/12/03 01:11:39;;;;;;;41.42;18.92;;;0.40;99.90;;;;;;5013958;28;20037;-59
2023/12/03 01:14:05;;;;;;;45.83;19.63;;;0.50;99.90;;;;;;5004472;28;20048;-56
2023/12/03 01:16:30;;;;;;;41.13;19.42;;;0.50;99.90;;;;;;4998601;28;20038;-56
2023/12/03 01:18:56;;;;;;;42.58;18.95;;;0.60;99.90;;;;;;5010516;28;20049;-56
2023/12/03 01:21:21;;;;;;;44.92;21.25;;;0.60;99.90;;;;;;5020354;28;20488;-60
2023/12/03 01:23:47;;;;;;;49.17;21.48;;;0.60;99.90;;;;;;5046663;28;20035;-58
2023/12/03 01:26:12;;;;;;;46.45;20.98;;;0.70;99.90;;;;;;5012153;28;20041;-59
2023/12/03 01:28:38;;;;;;;45.20;20.77;;;0.70;99.90;;;;;;5011986;28;20038;-59
2023/12/03 01:31:04;;;;;;;49.33;23.00;;;0.70;99.90;;;;;;5024502;28;20484;-59
2023/12/03 01:33:29;;;;;;;62.42;21.85;;;0.80;99.90;;;;;;5012444;28;20065;-63
2023/12/03 01:35:55;;;;;;;50.95;22.88;;;0.70;99.90;;;;;;5012805;28;20045;-57
2023/12/03 01:38:21;;;;;;;77.50;23.98;;;0.70;99.90;;;;;;5000787;28;20088;-56
2023/12/03 01:40:53;;;;;;;51.35;21.77;;;0.80;99.90;;;;;;5010035;28;20053;-58
2023/12/03 01:43:19;;;;;;;56.20;23.02;;;0.80;99.90;;;;;;5029287;28;20042;-57
2023/12/03 01:45:48;;;;;;;58.75;23.48;;;0.80;99.90;;;;;;5021289;28;20029;-57
2023/12/03 01:48:14;;;;;;;52.78;22.23;;;0.30;99.90;;;;;;5024590;28;20064;-58
2023/12/03 01:50:41;;;;;;;60.30;24.40;;;0.70;99.90;;;;;;5021752;28;20516;-63
2023/12/03 01:53:07;;;;;;;64.55;23.60;;;0.80;99.90;;;;;;5024071;28;20046;-61
2023/12/03 01:55:34;;;;;;;80.72;24.33;;;0.80;99.90;;;;;;5004535;28;20034;-59
2023/12/03 01:58:00;;;;;;;78.93;25.45;;;0.80;99.90;;;;;;5018311;28;20103;-58
2023/12/03 02:00:25;;;;;;;50.50;22.00;;;0.80;99.90;;;;;;5020768;28;20026;-58
2023/12/03 02:02:51;;;;;;;48.58;22.67;;;0.80;99.90;;;;;;5015324;28;20038;-59
2023/12/03 02:05:17;;;;;;;75.60;22.73;;;0.80;99.90;;;;;;5018237;28;20052;-61
2023/12/03 02:07:42;;;;;;;102.90;24.00;;;0.80;99.90;;;;;;5021461;28;20171;-62
2023/12/03 02:10:08;;;;;;;68.88;22.75;;;0.80;99.90;;;;;;5025027;28;20044;-58
2023/12/03 02:12:34;;;;;;;92.93;23.15;;;0.80;99.90;;;;;;5025369;28;20120;-57
2023/12/03 02:15:00;;;;;;;55.42;21.88;;;0.80;99.90;;;;;;5016786;28;20161;-57
2023/12/03 02:17:26;;;;;;;69.22;22.65;;;0.80;99.90;;;;;;5018347;28;20064;-58
2023/12/03 02:19:51;;;;;;;63.08;21.10;;;0.90;99.90;;;;;;5006193;28;20041;-58
2023/12/03 02:22:17;;;;;;;91.95;22.10;;;0.90;99.90;;;;;;5026606;28;20056;-64
2023/12/03 02:24:42;;;;;;;80.13;24.30;;;0.90;99.90;;;;;;5016108;28;20113;-58
2023/12/03 02:27:08;;;;;;;92.85;25.15;;;0.90;99.90;;;;;;4998173;28;20539;-59
2023/12/03 02:29:33;;;;;;;94.63;25.65;;;0.90;99.90;;;;;;5017900;28;20069;-59
2023/12/03 02:31:59;;;;;;;64.90;23.73;;;1.00;99.90;;;;;;5024624;28;20510;-63
2023/12/03 02:34:25;;;;;;;69.10;26.10;;;0.90;99.90;;;;;;5020556;28;20095;-58
2023/12/03 02:36:50;;;;;;;78.22;25.30;;;0.90;99.90;;;;;;5022614;28;20052;-57
2023/12/03 02:39:16;;;;;;;94.25;25.92;;;1.00;99.90;;;;;;5001430;28;20038;-59
2023/12/03 02:41:41;;;;;;;72.43;24.67;;;1.00;99.90;;;;;;5029014;28;20388;-63
2023/12/03 02:44:07;;;;;;;79.93;25.20;;;1.00;99.90;;;;;;5023275;28;20030;-60
2023/12/03 02:46:33;;;;;;;86.40;25.33;;;1.00;99.90;;;;;;5029065;28;20083;-57
2023/12/03 02:48:58;;;;;;;103.18;26.45;;;1.10;99.90;;;;;;5018028;28;20404;-59
2023/12/03 02:51:24;;;;;;;119.85;26.90;;;1.10;99.90;;;;;;5028056;28;20040;-59
2023/12/03 02:53:49;;;;;;;93.90;26.90;;;1.10;99.90;;;;;;5017174;28;20369;-58
2023/12/03 02:56:16;;;;;;;83.05;25.48;;;1.10;99.90;;;;;;5019350;28;20038;-58
2023/12/03 02:58:41;;;;;;;81.15;24.83;;;1.10;99.90;;;;;;5028671;28;20042;-57
2023/12/03 03:01:08;;;;;;;82.00;24.63;;;1.10;99.90;;;;;;5027172;28;20373;-59
2023/12/03 03:03:34;;;;;;;95.25;24.95;;;1.10;99.90;;;;;;5009873;28;20037;-59
2023/12/03 03:05:59;;;;;;;89.07;25.13;;;1.10;99.90;;;;;;5001987;28;20038;-59
2023/12/03 03:08:25;;;;;;;87.78;24.75;;;1.10;99.90;;;;;;5027926;28;20041;-59
2023/12/03 03:10:51;;;;;;;81.03;25.55;;;1.10;99.90;;;;;;5016959;28;20049;-59
2023/12/03 03:13:16;;;;;;;77.57;23.77;;;1.10;99.90;;;;;;5019272;28;20555;-60
2023/12/03 03:15:42;;;;;;;78.18;23.20;;;1.20;99.90;;;;;;5025025;28;20029;-59
2023/12/03 03:18:07;;;;;;;79.55;24.95;;;1.10;99.90;;;;;;4999739;28;20488;-59
2023/12/03 03:20:34;;;;;;;81.15;24.80;;;1.10;99.90;;;;;;5020965;28;20044;-59
2023/12/03 03:23:00;;;;;;;80.88;24.63;;;1.10;99.90;;;;;;5016397;28;20048;-56
2023/12/03 03:25:25;;;;;;;81.43;23.65;;;1.20;99.90;;;;;;5005422;28;20037;-57
2023/12/03 03:27:51;;;;;;;69.88;23.02;;;1.20;99.90;;;;;;5015668;28;20034;-62
2023/12/03 03:30:16;;;;;;;69.35;23.25;;;1.20;99.90;;;;;;5026281;28;20083;-59
2023/12/03 03:32:42;;;;;;;76.93;23.10;;;1.20;99.90;;;;;;5030880;28;20092;-59
2023/12/03 03:35:08;;;;;;;83.53;23.88;;;1.20;99.90;;;;;;5028343;28;20523;-66
2023/12/03 03:37:34;;;;;;;65.45;22.27;;;1.20;99.90;;;;;;5021477;28;20493;-59
2023/12/03 03:39:59;;;;;;;66.90;21.27;;;1.20;99.90;;;;;;5016592;28;20034;-62
2023/12/03 03:42:25;;;;;;;55.95;19.77;;;1.20;99.90;;;;;;5012761;28;20156;-57
2023/12/03 03:44:50;;;;;;;65.00;19.77;;;1.20;99.90;;;;;;5018803;28;20041;-58
2023/12/03 03:47:16;;;;;;;60.80;20.45;;;1.20;99.90;;;;;;5022589;28;20056;-61
2023/12/03 03:49:41;;;;;;;53.55;20.02;;;1.20;99.90;;;;;;5013499;28;20124;-61
2023/12/03 03:52:07;;;;;;;56.33;19.95;;;1.20;99.90;;;;;;5016320;28;20412;-60
2023/12/03 03:54:33;;;;;;;55.58;20.08;;;1.20;99.90;;;;;;5018496;28;20672;-57
2023/12/03 03:56:59;;;;;;;68.85;19.85;;;1.20;99.90;;;;;;4997661;28;20052;-58
2023/12/03 03:59:25;;;;;;;67.13;21.15;;;1.30;99.90;;;;;;5022661;28;20042;-60
2023/12/03 04:01:51;;;;;;;63.20;21.25;;;1.30;99.90;;;;;;5025011;28;20404;-66
2023/12/03 04:04:17;;;;;;;67.25;20.63;;;2.50;99.90;;;;;;5019451;28;20128;-59
2023/12/03 04:06:44;;;;;;;65.28;21.40;;;1.30;99.90;;;;;;5011330;28;20081;-62
2023/12/03 04:09:13;;;;;;;72.18;20.45;;;1.30;99.90;;;;;;5020005;28;20038;-60
2023/12/03 04:11:46;;;;;;;59.22;18.95;;;1.30;99.90;;;;;;5019250;28;20068;-62
2023/12/03 04:14:16;;;;;;;64.35;20.48;;;1.30;99.90;;;;;;5003199;28;20075;-62
2023/12/03 04:16:43;;;;;;;59.20;19.52;;;1.30;99.90;;;;;;5023143;28;20041;-62
2023/12/03 04:19:08;;;;;;;64.72;20.63;;;1.30;99.90;;;;;;5017916;28;20042;-62
2023/12/03 04:21:36;;;;;;;78.88;20.95;;;1.30;99.90;;;;;;5020494;28;20508;-62
2023/12/03 04:24:02;;;;;;;58.78;18.83;;;1.30;99.90;;;;;;5021410;28;20041;-62
2023/12/03 04:26:27;;;;;;;77.18;20.20;;;1.30;99.90;;;;;;5021834;28;20091;-62
2023/12/03 04:28:53;;;;;;;63.30;20.92;;;1.30;99.90;;;;;;5026194;28;20041;-62
2023/12/03 04:31:21;;;;;;;78.88;21.90;;;1.40;99.90;;;;;;5027530;28;20042;-61
2023/12/03 04:33:51;;;;;;;71.85;21.23;;;1.40;99.90;;;;;;5032642;28;20049;-62
2023/12/03 04:36:17;;;;;;;70.32;21.27;;;1.40;99.90;;;;;;4997212;28;20104;-62
2023/12/03 04:38:43;;;;;;;88.50;22.73;;;1.40;99.90;;;;;;5006701;28;20115;-61
2023/12/03 04:41:09;;;;;;;79.63;22.58;;;1.40;99.90;;;;;;5014183;28;20038;-61
2023/12/03 04:43:35;;;;;;;78.95;22.70;;;1.40;99.90;;;;;;5023055;28;20073;-62
2023/12/03 04:46:05;;;;;;;80.80;22.92;;;1.40;99.90;;;;;;5013840;28;20081;-61
2023/12/03 04:48:31;;;;;;;77.93;22.58;;;1.40;99.90;;;;;;5018586;28;20038;-59
2023/12/03 04:50:57;;;;;;;80.53;23.20;;;1.50;99.90;;;;;;5012152;28;20520;-62
2023/12/03 04:53:22;;;;;;;74.72;22.48;;;1.50;99.90;;;;;;5018586;28;20055;-62
2023/12/03 04:55:48;;;;;;;79.53;22.75;;;1.50;99.90;;;;;;5024218;28;20034;-62
2023/12/03 04:58:14;;;;;;;107.07;25.27;;;1.50;99.90;;;;;;5015112;28;20045;-62
2023/12/03 05:00:39;;;;;;;80.13;23.42;;;1.50;99.90;;;;;;5007243;28;20034;-61
2023/12/03 05:03:05;;;;;;;80.20;23.23;;;1.50;99.90;;;;;;5025013;28;20699;-62
2023/12/03 05:05:30;;;;;;;82.57;23.25;;;1.50;99.90;;;;;;5018851;28;20041;-62
2023/12/03 05:07:56;;;;;;;80.63;22.77;;;1.50;99.90;;;;;;5018930;28;20042;-62
2023/12/03 05:10:21;;;;;;;88.28;21.95;;;1.50;99.90;;;;;;4994715;28;20127;-60
2023/12/03 05:12:47;;;;;;;75.70;22.52;;;1.50;99.90;;;;;;5002851;28;20095;-62
2023/12/03 05:15:13;;;;;;;79.20;22.83;;;1.50;99.90;;;;;;5020935;28;20055;-62
2023/12/03 05:17:40;;;;;;;73.45;23.05;;;1.50;99.90;;;;;;4995363;28;20452;-62
2023/12/03 05:20:06;;;;;;;73.13;22.95;;;1.50;99.90;;;;;;5020792;28;20488;-62
2023/12/03 05:22:32;;;;;;;74.28;22.50;;;1.60;99.90;;;;;;5016732;28;20038;-63
2023/12/03 05:24:58;;;;;;;70.05;21.80;;;1.60;99.90;;;;;;5015546;28;20044;-62
2023/12/03 05:27:23;;;;;;;72.72;21.30;;;1.60;99.90;;;;;;5011649;28;20045;-62
2023/12/03 05:29:49;;;;;;;67.38;21.00;;;1.60;99.90;;;;;;5015796;28;20113;-62
2023/12/03 05:32:14;;;;;;;64.05;20.88;;;1.60;99.90;;;;;;5021182;28;20037;-62
2023/12/03 05:34:46;;;;;;;66.82;20.00;;;1.60;99.90;;;;;;4999862;28;20140;-62
2023/12/03 05:37:12;;;;;;;67.68;20.67;;;1.60;99.90;;;;;;5019730;28;20574;-62
2023/12/03 05:39:39;;;;;;;74.15;20.45;;;1.60;99.90;;;;;;5019267;28;20045;-62
2023/12/03 05:42:05;;;;;;;56.40;19.77;;;1.60;99.90;;;;;;5033062;28;20043;-60
2023/12/03 05:44:31;;;;;;;68.03;21.83;;;1.60;99.90;;;;;;4995931;28;20045;-63
2023/12/03 05:46:57;;;;;;;67.53;21.70;;;1.60;99.90;;;;;;5015049;28;20405;-63
2023/12/03 05:49:22;;;;;;;67.90;21.40;;;1.60;99.90;;;;;;4999233;28;20046;-61
2023/12/03 05:51:49;;;;;;;73.10;22.88;;;1.60;99.90;;;;;;5001911;28;20100;-63
2023/12/03 05:54:15;;;;;;;78.70;22.88;;;1.60;99.90;;;;;;5020592;28;20042;-60
2023/12/03 05:56:41;;;;;;;85.80;24.52;;;1.60;99.90;;;;;;5016935;28;20107;-60
2023/12/03 05:59:07;;;;;;;71.10;22.23;;;1.60;99.90;;;;;;5015381;28;20432;-63
2023/12/03 06:01:32;;;;;;;77.03;22.73;;;1.60;99.90;;;;;;5025477;28;20029;-62
2023/12/03 06:03:59;;;;;;;68.32;21.90;;;1.60;99.90;;;;;;5005409;28;20034;-63
2023/12/03 06:06:24;;;;;;;69.65;22.63;;;1.70;99.90;;;;;;5007056;28;20045;-63
2023/12/03 06:08:50;;;;;;;68.70;21.60;;;1.70;99.90;;;;;;5020248;28;20038;-63
2023/12/03 06:11:16;;;;;;;69.30;21.50;;;1.70;99.90;;;;;;5019788;28;20033;-63
2023/12/03 06:13:41;;;;;;;67.72;21.45;;;1.70;99.90;;;;;;5006076;28;20455;-60
2023/12/03 06:16:07;;;;;;;71.63;20.98;;;1.70;99.90;;;;;;5026864;28;20037;-63
2023/12/03 06:18:34;;;;;;;65.05;21.10;;;1.60;99.90;;;;;;5030029;28;20056;-63
2023/12/03 06:20:59;;;;;;;61.85;19.02;;;1.60;99.90;;;;;;5025642;28;20034;-63
2023/12/03 06:23:25;;;;;;;64.70;19.85;;;1.70;99.90;;;;;;5034999;28;20534;-63
2023/12/03 06:25:51;;;;;;;61.90;19.60;;;1.70;99.90;;;;;;5028936;28;20045;-62
2023/12/03 06:28:17;;;;;;;61.80;18.75;;;1.70;99.90;;;;;;5032434;28;20395;-63
2023/12/03 06:30:42;;;;;;;63.47;19.88;;;1.70;99.90;;;;;;5024910;28;20034;-63
2023/12/03 06:33:08;;;;;;;55.55;18.13;;;1.70;99.90;;;;;;5032752;28;20405;-61
2023/12/03 06:35:33;;;;;;;58.65;19.58;;;1.70;99.90;;;;;;5019493;28;20033;-62
2023/12/03 06:37:59;;;;;;;55.42;18.77;;;1.70;99.90;;;;;;5023684;28;20041;-62
2023/12/03 06:40:25;;;;;;;55.38;17.27;;;1.70;99.90;;;;;;5007940;28;20127;-63
2023/12/03 06:42:50;;;;;;;57.67;17.75;;;1.70;99.90;;;;;;5021849;28;20037;-62
2023/12/03 06:45:16;;;;;;;56.50;18.13;;;1.70;99.90;;;;;;5060114;22;20043;-62
2023/12/03 06:47:41;;;;;;;57.63;17.48;;;1.70;99.90;;;;;;5045602;28;20029;-62
2023/12/03 06:50:07;;;;;;;53.10;16.83;;;1.70;99.90;;;;;;5061156;28;20102;-62
2023/12/03 06:52:33;;;;;;;51.97;17.13;;;1.70;99.90;;;;;;5066529;28;20044;-63
2023/12/03 06:54:58;;;;;;;51.83;17.67;;;1.70;99.90;;;;;;5050266;28;20503;-61
2023/12/03 06:57:24;;;;;;;60.55;18.05;;;1.70;99.90;;;;;;5051001;28;20047;-62
2023/12/03 06:59:50;;;;;;;58.00;18.38;;;1.70;99.90;;;;;;5053036;28;20035;-63
2023/12/03 07:02:15;;;;;;;56.97;17.77;;;1.70;99.90;;;;;;5052076;28;20041;-61
2023/12/03 07:04:41;;;;;;;62.08;19.20;;;1.70;99.90;;;;;;5050194;28;20033;-62
2023/12/03 07:07:07;;;;;;;62.50;18.92;;;1.70;99.90;;;;;;5048832;28;20392;-62
2023/12/03 07:09:32;;;;;;;58.90;19.25;;;1.70;99.90;;;;;;5047411;28;20033;-63
2023/12/03 07:11:58;;;;;;;61.40;19.15;;;1.70;99.90;;;;;;5047024;28;20407;-62
2023/12/03 07:14:23;;;;;;;58.63;19.60;;;1.70;99.90;;;;;;5042982;28;20040;-62
2023/12/03 07:16:49;;;;;;;59.67;19.35;;;1.70;99.90;;;;;;5050389;28;20045;-63
2023/12/03 07:19:14;;;;;;;60.88;18.98;;;1.80;99.90;;;;;;5050285;28;20041;-62
2023/12/03 07:21:40;;;;;;;62.03;19.92;;;1.70;99.90;;;;;;5048527;28;20029;-62
2023/12/03 07:24:07;;;;;;;59.22;18.50;;;1.70;99.90;;;;;;5045242;28;20040;-62
2023/12/03 07:26:33;;;;;;;64.00;20.00;;;1.80;99.90;;;;;;5052244;28;20043;-62
2023/12/03 07:28:59;;;;;;;59.17;20.75;;;1.80;99.90;;;;;;5034451;28;20120;-62
2023/12/03 07:31:24;;;;;;;59.83;18.92;;;1.80;99.90;;;;;;5051567;28;20068;-62
2023/12/03 07:33:50;;;;;;;57.08;19.65;;;1.80;99.90;;;;;;5047983;28;20044;-62
2023/12/03 07:36:15;;;;;;;59.28;19.67;;;1.80;99.90;;;;;;5032128;28;20037;-61
2023/12/03 07:38:41;;;;;;;62.67;21.30;;;1.80;99.90;;;;;;5045147;28;20783;-63
2023/12/03 07:41:10;;;;;;;56.75;20.25;;;1.90;99.90;;;;;;5040441;28;20132;-63
2023/12/03 07:43:36;;;;;;;65.20;20.77;;;1.90;99.90;;;;;;5040163;28;20032;-62
2023/12/03 07:46:01;;;;;;;60.85;21.33;;;1.90;99.90;;;;;;5042448;28;20403;-63
2023/12/03 07:48:27;;;;;;;56.35;20.58;;;1.90;99.90;;;;;;5047255;28;20134;-63
2023/12/03 07:50:53;;;;;;;58.58;20.50;;;1.90;99.90;;;;;;5044220;28;20403;-64
2023/12/03 07:53:19;;;;;;;61.28;20.58;;;1.90;99.90;;;;;;5038192;28;20041;-62
2023/12/03 07:55:44;;;;;;;52.15;20.02;;;2.00;99.90;;;;;;5048455;28;20314;-62
2023/12/03 07:58:11;;;;;;;64.20;21.85;;;2.00;99.90;;;;;;5047173;28;20537;-63
2023/12/03 08:00:38;;;;;;;62.00;21.35;;;2.00;99.90;;;;;;5046247;28;20079;-62
2023/12/03 08:03:05;;;;;;;57.42;21.40;;;2.00;99.90;;;;;;5038541;28;20060;-62
2023/12/03 08:05:31;;;;;;;59.60;21.45;;;2.00;99.90;;;;;;5048854;28;20504;-62
2023/12/03 08:07:58;;;;;;;56.50;21.30;;;2.00;99.90;;;;;;5045551;28;20041;-61
2023/12/03 08:10:23;;;;;;;64.90;22.83;;;2.00;99.90;;;;;;5050788;28;20462;-62
2023/12/03 08:12:49;;;;;;;61.67;22.83;;;2.00;99.90;;;;;;5049540;28;20060;-61
2023/12/03 08:15:15;;;;;;;58.08;21.88;;;2.00;99.90;;;;;;5050279;28;20118;-61
2023/12/03 08:17:40;;;;;;;67.65;24.25;;;2.00;99.90;;;;;;5050332;28;20041;-62
2023/12/03 08:20:06;;;;;;;62.50;24.35;;;2.00;99.90;;;;;;5050329;28;20036;-61
2023/12/03 08:22:32;;;;;;;61.55;22.83;;;2.00;99.90;;;;;;5049634;28;20483;-62
2023/12/03 08:24:58;;;;;;;63.88;24.00;;;2.10;99.90;;;;;;5043203;28;20035;-62
2023/12/03 08:27:24;;;;;;;64.78;23.88;;;2.00;99.90;;;;;;5046881;28;20139;-62
2023/12/03 08:29:49;;;;;;;65.47;25.40;;;2.10;99.90;;;;;;5049294;28;20047;-62
2023/12/03 08:32:15;;;;;;;66.13;25.80;;;2.00;99.90;;;;;;5049703;28;20108;-61
2023/12/03 08:34:41;;;;;;;67.80;25.30;;;2.00;99.90;;;;;;5042819;28;20037;-63
2023/12/03 08:37:06;;;;;;;58.17;25.63;;;1.10;99.90;;;;;;5042239;28;20398;-62
2023/12/03 08:39:32;;;;;;;60.78;26.52;;;2.00;99.90;;;;;;5048880;28;20040;-62
2023/12/03 08:41:57;;;;;;;62.58;25.58;;;2.00;99.90;;;;;;5043055;28;20052;-61
2023/12/03 08:44:25;;;;;;;61.58;26.52;;;1.90;99.90;;;;;;5037132;28;20369;-63
2023/12/03 08:46:51;;;;;;;63.20;26.15;;;1.90;99.90;;;;;;5026818;28;20477;-63
2023/12/03 08:49:17;;;;;;;61.75;26.67;;;1.90;99.90;;;;;;5046162;28;20047;-63
2023/12/03 08:51:42;;;;;;;61.42;27.17;;;1.90;99.90;;;;;;5038446;28;20037;-62
2023/12/03 08:54:08;;;;;;;63.92;27.70;;;1.90;99.90;;;;;;5044573;28;20094;-62
2023/12/03 08:56:33;;;;;;;63.75;27.55;;;1.90;99.90;;;;;;5036763;28;20041;-63
2023/12/03 08:58:59;;;;;;;58.97;27.55;;;1.90;99.90;;;;;;5045965;28;20404;-63
2023/12/03 09:01:25;;;;;;;59.47;26.63;;;1.90;99.90;;;;;;5043726;28;20080;-62
2023/12/03 09:03:51;;;;;;;64.45;27.98;;;1.90;99.90;;;;;;5045954;28;20056;-63
2023/12/03 09:06:18;;;;;;;60.38;28.27;;;1.90;99.90;;;;;;5043220;28;20426;-62
2023/12/03 09:08:43;;;;;;;59.83;30.02;;;1.90;99.90;;;;;;5042717;28;20056;-63
2023/12/03 09:11:09;;;;;;;59.00;29.15;;;1.90;99.90;;;;;;5046189;28;20470;-62
2023/12/03 09:13:34;;;;;;;55.90;27.83;;;1.90;99.90;;;;;;5035912;28;20483;-61
2023/12/03 09:16:00;;;;;;;59.03;27.58;;;1.90;99.90;;;;;;5049633;28;20098;-63
2023/12/03 09:18:26;;;;;;;52.03;26.83;;;1.90;99.90;;;;;;5034511;28;20603;-62
2023/12/03 09:20:51;;;;;;;53.70;27.50;;;1.90;99.90;;;;;;5049341;28;20033;-63
2023/12/03 09:23:18;;;;;;;54.78;27.60;;;1.90;99.90;;;;;;5047006;28;20029;-63
2023/12/03 09:25:43;;;;;;;50.22;25.60;;;1.90;99.90;;;;;;5037725;28;20069;-62
2023/12/03 09:28:10;;;;;;;56.60;27.25;;;1.90;99.90;;;;;;5048412;28;20083;-61
2023/12/03 09:30:36;;;;;;;49.13;26.02;;;1.80;99.90;;;;;;5040699;28;20029;-62
2023/12/03 09:33:01;;;;;;;55.70;26.40;;;1.80;99.90;;;;;;5038343;28;20446;-62
2023/12/03 09:35:30;;;;;;;55.88;27.83;;;1.80;99.90;;;;;;5044367;28;20049;-62
2023/12/03 09:37:56;;;;;;;54.10;28.13;;;1.90;99.90;;;;;;5038884;28;20040;-62
2023/12/03 09:40:22;;;;;;;57.72;28.63;;;1.80;99.90;;;;;;5046900;28;20029;-62
2023/12/03 09:42:48;;;;;;;53.72;26.88;;;1.90;99.90;;;;;;5034768;28;20042;-62
2023/12/03 09:45:16;;;;;;;56.30;28.33;;;2.00;99.90;;;;;;5036230;28;20535;-62
2023/12/03 09:47:49;;;;;;;55.58;28.25;;;2.00;99.90;;;;;;5049300;28;20120;-61
2023/12/03 09:50:16;;;;;;;54.40;28.27;;;2.00;99.90;;;;;;5046306;28;20068;-62
2023/12/03 09:52:43;;;;;;;55.08;28.05;;;2.00;99.90;;;;;;5043567;28;20110;-61
2023/12/03 09:55:09;;;;;;;54.00;27.80;;;2.00;99.90;;;;;;5036403;28;20064;-62
2023/12/03 09:57:36;;;;;;;53.60;27.35;;;2.10;99.90;;;;;;5040262;28;20065;-62
2023/12/03 10:00:07;;;;;;;54.67;27.90;;;2.10;99.90;;;;;;5047936;28;20033;-61
2023/12/03 10:02:34;;;;;;;56.75;28.35;;;2.10;99.90;;;;;;5044968;28;20040;-61
2023/12/03 10:04:59;;;;;;;51.80;28.23;;;2.20;99.90;;;;;;5036856;28;20091;-61
2023/12/03 10:07:28;;;;;;;51.88;27.35;;;2.20;99.90;;;;;;5039056;28;20454;-58
2023/12/03 10:09:58;;;;;;;47.20;25.67;;;2.20;99.90;;;;;;5038056;28;20116;-60
2023/12/03 10:12:26;;;;;;;44.03;24.60;;;2.20;99.90;;;;;;5047462;28;20029;-60
2023/12/03 10:14:51;;;;;;;48.85;25.20;;;2.20;99.90;;;;;;5026774;28;20037;-60
2023/12/03 10:17:19;;;;;;;49.83;25.42;;;2.20;99.90;;;;;;5020964;28;20075;-60
2023/12/03 10:19:45;;;;;;;47.65;23.92;;;2.20;99.90;;;;;;5045270;28;20423;-60
2023/12/03 10:22:12;;;;;;;45.97;23.25;;;2.20;99.90;;;;;;5049111;28;20052;-60
2023/12/03 10:24:50;;;;;;;45.85;23.33;;;2.20;99.90;;;;;;5042494;28;20037;-60
2023/12/03 10:27:16;;;;;;;46.95;23.58;;;2.10;99.90;;;;;;5039633;28;20068;-63
2023/12/03 10:29:41;;;;;;;46.78;22.38;;;2.20;99.90;;;;;;5048759;28;20063;-60
2023/12/03 10:32:09;;;;;;;43.75;22.48;;;2.10;99.90;;;;;;5048162;28;20036;-62
2023/12/03 10:34:34;;;;;;;50.63;23.70;;;2.10;99.90;;;;;;5048034;28;20108;-64
2023/12/03 10:37:01;;;;;;;50.50;23.80;;;2.00;99.90;;;;;;5044670;28;20112;-59
2023/12/03 10:39:26;;;;;;;47.90;24.00;;;2.00;99.90;;;;;;5039190;28;20535;-60
2023/12/03 10:41:52;;;;;;;48.72;22.48;;;2.00;99.90;;;;;;5049105;28;20033;-60
2023/12/03 10:44:24;;;;;;;45.42;22.23;;;2.00;99.90;;;;;;5038981;28;20080;-59
2023/12/03 10:46:50;;;;;;;52.30;23.38;;;2.00;99.90;;;;;;5042028;28;20407;-61
2023/12/03 10:49:16;;;;;;;50.08;22.80;;;2.00;99.90;;;;;;5033652;28;20052;-60
2023/12/03 10:51:43;;;;;;;47.95;23.33;;;2.00;99.90;;;;;;5030321;28;20045;-60
2023/12/03 10:54:11;;;;;;;46.05;23.10;;;2.00;99.90;;;;;;5041465;28;20049;-60
2023/12/03 10:56:37;;;;;;;52.70;25.10;;;2.00;99.90;;;;;;5047597;28;20044;-65
2023/12/03 10:59:09;;;;;;;48.80;25.30;;;2.00;99.90;;;;;;5044640;28;20029;-60
2023/12/03 11:01:39;;;;;;;53.53;26.15;;;2.00;99.90;;;;;;5043963;28;20522;-61
2023/12/03 11:04:14;;;;;;;60.35;28.65;;;2.00;99.90;;;;;;5051699;28;20037;-58
2023/12/03 11:06:40;;;;;;;57.28;27.75;;;2.00;99.90;;;;;;5034399;28;20038;-62
2023/12/03 11:09:07;;;;;;;57.78;27.73;;;1.90;99.90;;;;;;5038562;28;20104;-60
2023/12/03 11:11:34;;;;;;;58.45;28.55;;;2.00;99.90;;;;;;5020892;28;20041;-61
2023/12/03 11:13:59;;;;;;;63.58;28.95;;;2.00;99.90;;;;;;5040449;28;20167;-60
2023/12/03 11:16:36;;;;;;;62.85;30.02;;;2.00;99.90;;;;;;5041168;28;20037;-60
2023/12/03 11:19:10;;;;;;;64.07;29.48;;;2.10;99.90;;;;;;5040090;28;20033;-61
2023/12/03 11:21:41;;;;;;;65.68;29.98;;;2.10;99.90;;;;;;5016507;28;20046;-60
2023/12/03 11:24:33;;;;;;;59.63;28.02;;;2.10;99.90;;;;;;5048964;28;20094;-58
2023/12/03 11:26:59;;;;;;;66.22;30.45;;;2.20;99.90;;;;;;5051685;28;20051;-60
2023/12/03 11:29:48;;;;;;;63.78;30.02;;;2.20;99.90;;;;;;5046940;28;20076;-60
2023/12/03 11:32:14;;;;;;;62.47;29.95;;;2.20;99.90;;;;;;5045573;28;20048;-58
2023/12/03 11:34:40;;;;;;;65.53;30.13;;;2.20;99.90;;;;;;5045605;28;20033;-60
2023/12/03 11:37:11;;;;;;;61.83;29.67;;;2.30;99.90;;;;;;5044555;28;20090;-60
2023/12/03 11:39:41;;;;;;;57.78;28.23;;;2.40;99.90;;;;;;5023103;28;20061;-61
2023/12/03 11:42:09;;;;;;;64.43;29.27;;;2.40;99.90;;;;;;5043031;28;20088;-61
2023/12/03 11:44:35;;;;;;;62.03;27.95;;;2.40;99.90;;;;;;5036675;28;20033;-65
2023/12/03 11:47:11;;;;;;;58.05;26.55;;;2.50;99.90;;;;;;5042416;28;20400;-61
2023/12/03 11:49:38;;;;;;;57.33;27.60;;;2.50;99.90;;;;;;5039921;28;21192;-62
2023/12/03 11:52:04;;;;;;;52.33;26.38;;;2.60;99.90;;;;;;5050720;28;20116;-62
2023/12/03 11:54:48;;;;;;;49.70;25.40;;;2.60;99.90;;;;;;5038928;28;20067;-59
2023/12/03 11:57:15;;;;;;;49.00;24.00;;;2.70;99.90;;;;;;5044043;28;20069;-60
2023/12/03 11:59:42;;;;;;;44.25;21.52;;;2.80;99.90;;;;;;5050337;28;20067;-58
2023/12/03 12:02:08;;;;;;;50.30;22.83;;;2.90;99.90;;;;;;5047246;28;20055;-64
2023/12/03 12:04:33;;;;;;;43.90;21.73;;;3.00;99.90;;;;;;5042269;28;20500;-61
2023/12/03 12:07:11;;;;;;;42.63;21.50;;;3.10;99.90;;;;;;5046582;28;20543;-64
2023/12/03 12:09:37;;;;;;;43.25;20.83;;;3.20;99.90;;;;;;5030956;28;20084;-63
2023/12/03 12:12:03;;;;;;;39.85;19.08;;;3.30;99.90;;;;;;5028507;28;20045;-60
2023/12/03 12:14:29;;;;;;;38.15;18.13;;;3.30;99.90;;;;;;5039162;28;20116;-60
2023/12/03 12:16:55;;;;;;;38.83;18.90;;;3.40;99.90;;;;;;5038036;28;20033;-60
2023/12/03 12:19:20;;;;;;;39.70;19.38;;;3.50;99.90;;;;;;5026075;28;20120;-59
2023/12/03 12:21:56;;;;;;;39.13;18.58;;;3.60;99.90;;;;;;5044909;28;20399;-62
2023/12/03 12:24:25;;;;;;;37.17;18.58;;;3.80;99.90;;;;;;5047678;28;20106;-61
2023/12/03 12:26:51;;;;;;;35.58;17.55;;;3.80;99.90;;;;;;5038159;28;20041;-60
2023/12/03 12:29:21;;;;;;;34.22;16.70;;;3.90;99.90;;;;;;5047423;28;20099;-60
2023/12/03 12:31:47;;;;;;;35.97;17.33;;;3.90;99.90;;;;;;5051245;28;20115;-61